sensor_id;sensor_type;location;lat;lon;timestamp;P1;durP1;ratioP1;P2;durP2;ratioP2
7205;SDS011;3644;53.480;10.004;2024-03-08T00:00:12;21.67;;;12.83;;
7205;SDS011;3644;53.480;10.004;2024-03-08T00:02:39;21.97;;;12.00;;
7205;SDS011;3644;53.480;10.004;2024-03-08T00:05:06;24.10;;;10.57;;
7205;SDS011;3644;53.480;10.004;2024-03-08T00:07:34;17.30;;;10.87;;
7205;SDS011;3644;53.480;10.004;2024-03-08T00:09:59;21.53;;;11.37;;
7205;SDS011;3644;53.480;10.004;2024-03-08T00:12:25;20.87;;;12.67;;
7205;SDS011;3644;53.480;10.004;2024-03-08T00:14:53;16.20;;;11.27;;
7205;SDS011;3644;53.480;10.004;2024-03-08T00:17:19;23.17;;;12.93;;
7205;SDS011;3644;53.480;10.004;2024-03-08T00:19:47;22.03;;;12.70;;
7205;SDS011;3644;53.480;10.004;2024-03-08T00:22:16;16.03;;;10.80;;
7205;SDS011;3644;53.480;10.004;2024-03-08T00:24:42;27.23;;;12.80;;
7205;SDS011;3644;53.480;10.004;2024-03-08T00:27:08;25.03;;;11.90;;
7205;SDS011;3644;53.480;10.004;2024-03-08T00:29:34;24.30;;;11.83;;
7205;SDS011;3644;53.480;10.004;2024-03-08T00:32:00;24.50;;;13.07;;
7205;SDS011;3644;53.480;10.004;2024-03-08T00:34:26;21.00;;;12.60;;
7205;SDS011;3644;53.480;10.004;2024-03-08T00:36:51;24.03;;;11.80;;
7205;SDS011;3644;53.480;10.004;2024-03-08T00:39:17;27.77;;;12.73;;
7205;SDS011;3644;53.480;10.004;2024-03-08T00:41:44;20.50;;;12.50;;
7205;SDS011;3644;53.480;10.004;2024-03-08T00:44:10;18.30;;;12.07;;
7205;SDS011;3644;53.480;10.004;2024-03-08T00:46:35;19.83;;;11.93;;
7205;SDS011;3644;53.480;10.004;2024-03-08T00:49:01;20.00;;;12.17;;
7205;SDS011;3644;53.480;10.004;2024-03-08T00:51:26;23.60;;;13.40;;
7205;SDS011;3644;53.480;10.004;2024-03-08T00:53:52;24.13;;;12.50;;
7205;SDS011;3644;53.480;10.004;2024-03-08T00:56:17;24.53;;;13.60;;
7205;SDS011;3644;53.480;10.004;2024-03-08T00:58:43;25.40;;;12.07;;
7205;SDS011;3644;53.480;10.004;2024-03-08T01:01:09;21.37;;;12.10;;
7205;SDS011;3644;53.480;10.004;2024-03-08T01:03:34;23.33;;;12.10;;
7205;SDS011;3644;53.480;10.004;2024-03-08T01:06:01;30.60;;;12.17;;
7205;SDS011;3644;53.480;10.004;2024-03-08T01:08:27;25.60;;;13.47;;
7205;SDS011;3644;53.480;10.004;2024-03-08T01:10:53;27.20;;;13.70;;
7205;SDS011;3644;53.480;10.004;2024-03-08T01:13:18;25.07;;;12.47;;
7205;SDS011;3644;53.480;10.004;2024-03-08T01:15:44;22.03;;;11.43;;
7205;SDS011;3644;53.480;10.004;2024-03-08T01:18:10;23.53;;;11.90;;
7205;SDS011;3644;53.480;10.004;2024-03-08T01:20:36;20.03;;;12.30;;
7205;SDS011;3644;53.480;10.004;2024-03-08T01:23:01;23.97;;;11.83;;
7205;SDS011;3644;53.480;10.004;2024-03-08T01:25:28;27.60;;;13.00;;
7205;SDS011;3644;53.480;10.004;2024-03-08T01:27:54;26.60;;;12.70;;
7205;SDS011;3644;53.480;10.004;2024-03-08T01:30:19;24.20;;;12.47;;
7205;SDS011;3644;53.480;10.004;2024-03-08T01:32:45;22.07;;;13.70;;
7205;SDS011;3644;53.480;10.004;2024-03-08T01:35:10;23.23;;;11.97;;
7205;SDS011;3644;53.480;10.004;2024-03-08T01:37:36;25.27;;;13.17;;
7205;SDS011;3644;53.480;10.004;2024-03-08T01:40:02;25.07;;;13.17;;
7205;SDS011;3644;53.480;10.004;2024-03-08T01:42:28;26.00;;;13.53;;
7205;SDS011;3644;53.480;10.004;2024-03-08T01:44:54;25.83;;;13.10;;
7205;SDS011;3644;53.480;10.004;2024-03-08T01:47:19;21.80;;;11.50;;
7205;SDS011;3644;53.480;10.004;2024-03-08T01:49:48;22.53;;;13.40;;
7205;SDS011;3644;53.480;10.004;2024-03-08T01:52:14;26.27;;;13.50;;
7205;SDS011;3644;53.480;10.004;2024-03-08T01:54:40;25.07;;;12.83;;
7205;SDS011;3644;53.480;10.004;2024-03-08T01:57:06;28.57;;;13.43;;
7205;SDS011;3644;53.480;10.004;2024-03-08T01:59:32;26.03;;;13.20;;
7205;SDS011;3644;53.480;10.004;2024-03-08T02:01:59;30.93;;;13.73;;
7205;SDS011;3644;53.480;10.004;2024-03-08T02:04:28;24.50;;;13.00;;
7205;SDS011;3644;53.480;10.004;2024-03-08T02:06:55;27.67;;;12.87;;
7205;SDS011;3644;53.480;10.004;2024-03-08T02:09:22;22.03;;;12.60;;
7205;SDS011;3644;53.480;10.004;2024-03-08T02:11:49;22.93;;;12.50;;
7205;SDS011;3644;53.480;10.004;2024-03-08T02:14:15;24.00;;;12.40;;
7205;SDS011;3644;53.480;10.004;2024-03-08T02:16:41;18.93;;;12.50;;
7205;SDS011;3644;53.480;10.004;2024-03-08T02:19:07;24.00;;;12.47;;
7205;SDS011;3644;53.480;10.004;2024-03-08T02:21:34;24.20;;;14.13;;
7205;SDS011;3644;53.480;10.004;2024-03-08T02:24:01;23.63;;;12.50;;
7205;SDS011;3644;53.480;10.004;2024-03-08T02:26:26;22.33;;;12.00;;
7205;SDS011;3644;53.480;10.004;2024-03-08T02:28:52;19.00;;;11.67;;
7205;SDS011;3644;53.480;10.004;2024-03-08T02:31:18;24.17;;;13.07;;
7205;SDS011;3644;53.480;10.004;2024-03-08T02:33:43;22.03;;;12.00;;
7205;SDS011;3644;53.480;10.004;2024-03-08T02:36:09;22.47;;;12.90;;
7205;SDS011;3644;53.480;10.004;2024-03-08T02:38:34;22.73;;;12.10;;
7205;SDS011;3644;53.480;10.004;2024-03-08T02:41:00;25.67;;;13.70;;
7205;SDS011;3644;53.480;10.004;2024-03-08T02:43:25;27.93;;;14.17;;
7205;SDS011;3644;53.480;10.004;2024-03-08T02:45:51;23.83;;;12.43;;
7205;SDS011;3644;53.480;10.004;2024-03-08T02:48:19;27.73;;;12.40;;
7205;SDS011;3644;53.480;10.004;2024-03-08T02:50:46;27.70;;;13.00;;
7205;SDS011;3644;53.480;10.004;2024-03-08T02:53:12;24.33;;;13.13;;
7205;SDS011;3644;53.480;10.004;2024-03-08T02:55:39;26.97;;;13.50;;
7205;SDS011;3644;53.480;10.004;2024-03-08T02:58:06;22.80;;;12.97;;
7205;SDS011;3644;53.480;10.004;2024-03-08T03:00:34;19.57;;;11.97;;
7205;SDS011;3644;53.480;10.004;2024-03-08T03:03:01;22.80;;;12.97;;
7205;SDS011;3644;53.480;10.004;2024-03-08T03:05:28;25.40;;;13.47;;
7205;SDS011;3644;53.480;10.004;2024-03-08T03:07:54;25.03;;;13.90;;
7205;SDS011;3644;53.480;10.004;2024-03-08T03:10:20;32.20;;;13.20;;
7205;SDS011;3644;53.480;10.004;2024-03-08T03:12:46;23.10;;;13.23;;
7205;SDS011;3644;53.480;10.004;2024-03-08T03:15:13;25.60;;;13.80;;
7205;SDS011;3644;53.480;10.004;2024-03-08T03:17:39;23.83;;;13.23;;
7205;SDS011;3644;53.480;10.004;2024-03-08T03:20:06;32.83;;;14.80;;
7205;SDS011;3644;53.480;10.004;2024-03-08T03:22:38;31.40;;;15.43;;
7205;SDS011;3644;53.480;10.004;2024-03-08T03:25:05;27.90;;;15.10;;
7205;SDS011;3644;53.480;10.004;2024-03-08T03:27:32;26.53;;;14.30;;
7205;SDS011;3644;53.480;10.004;2024-03-08T03:29:57;23.10;;;13.10;;
7205;SDS011;3644;53.480;10.004;2024-03-08T03:32:23;22.90;;;13.50;;
7205;SDS011;3644;53.480;10.004;2024-03-08T03:34:49;33.80;;;15.70;;
7205;SDS011;3644;53.480;10.004;2024-03-08T03:37:18;31.00;;;15.53;;
7205;SDS011;3644;53.480;10.004;2024-03-08T03:39:44;32.20;;;15.00;;
7205;SDS011;3644;53.480;10.004;2024-03-08T03:42:18;27.67;;;13.80;;
7205;SDS011;3644;53.480;10.004;2024-03-08T03:44:45;29.13;;;13.37;;
7205;SDS011;3644;53.480;10.004;2024-03-08T03:47:12;32.17;;;14.57;;
7205;SDS011;3644;53.480;10.004;2024-03-08T03:49:37;31.00;;;15.87;;
7205;SDS011;3644;53.480;10.004;2024-03-08T03:52:03;23.80;;;12.73;;
7205;SDS011;3644;53.480;10.004;2024-03-08T03:54:29;29.87;;;14.97;;
7205;SDS011;3644;53.480;10.004;2024-03-08T03:56:55;27.97;;;13.17;;
7205;SDS011;3644;53.480;10.004;2024-03-08T03:59:21;24.53;;;12.90;;
7205;SDS011;3644;53.480;10.004;2024-03-08T04:01:47;31.03;;;15.97;;
7205;SDS011;3644;53.480;10.004;2024-03-08T04:04:13;30.97;;;13.80;;
7205;SDS011;3644;53.480;10.004;2024-03-08T04:06:39;22.50;;;12.90;;
7205;SDS011;3644;53.480;10.004;2024-03-08T04:09:04;34.80;;;17.10;;
7205;SDS011;3644;53.480;10.004;2024-03-08T04:11:30;24.70;;;13.50;;
7205;SDS011;3644;53.480;10.004;2024-03-08T04:13:55;27.50;;;13.93;;
7205;SDS011;3644;53.480;10.004;2024-03-08T04:16:21;24.93;;;13.90;;
7205;SDS011;3644;53.480;10.004;2024-03-08T04:18:47;27.73;;;14.20;;
7205;SDS011;3644;53.480;10.004;2024-03-08T04:21:12;33.07;;;15.33;;
7205;SDS011;3644;53.480;10.004;2024-03-08T04:23:38;33.10;;;14.90;;
7205;SDS011;3644;53.480;10.004;2024-03-08T04:26:03;34.40;;;14.83;;
7205;SDS011;3644;53.480;10.004;2024-03-08T04:28:30;29.80;;;14.03;;
7205;SDS011;3644;53.480;10.004;2024-03-08T04:30:56;37.73;;;15.33;;
7205;SDS011;3644;53.480;10.004;2024-03-08T04:33:22;27.00;;;14.80;;
7205;SDS011;3644;53.480;10.004;2024-03-08T04:35:48;29.33;;;15.90;;
7205;SDS011;3644;53.480;10.004;2024-03-08T04:38:14;32.67;;;14.40;;
7205;SDS011;3644;53.480;10.004;2024-03-08T04:40:40;38.43;;;15.90;;
7205;SDS011;3644;53.480;10.004;2024-03-08T04:43:06;35.73;;;16.40;;
7205;SDS011;3644;53.480;10.004;2024-03-08T04:45:33;37.13;;;16.97;;
7205;SDS011;3644;53.480;10.004;2024-03-08T04:47:59;37.43;;;16.93;;
7205;SDS011;3644;53.480;10.004;2024-03-08T04:50:24;26.80;;;14.73;;
7205;SDS011;3644;53.480;10.004;2024-03-08T04:52:50;33.10;;;15.10;;
7205;SDS011;3644;53.480;10.004;2024-03-08T04:55:15;35.70;;;16.30;;
7205;SDS011;3644;53.480;10.004;2024-03-08T04:57:41;30.63;;;14.77;;
7205;SDS011;3644;53.480;10.004;2024-03-08T05:00:11;28.03;;;15.33;;
7205;SDS011;3644;53.480;10.004;2024-03-08T05:02:37;29.37;;;14.37;;
7205;SDS011;3644;53.480;10.004;2024-03-08T05:05:06;31.20;;;15.20;;
7205;SDS011;3644;53.480;10.004;2024-03-08T05:07:32;37.07;;;15.23;;
7205;SDS011;3644;53.480;10.004;2024-03-08T05:09:58;31.03;;;15.77;;
7205;SDS011;3644;53.480;10.004;2024-03-08T05:12:24;24.23;;;13.50;;
7205;SDS011;3644;53.480;10.004;2024-03-08T05:14:50;30.07;;;14.53;;
7205;SDS011;3644;53.480;10.004;2024-03-08T05:17:15;26.90;;;15.30;;
7205;SDS011;3644;53.480;10.004;2024-03-08T05:19:42;28.23;;;14.90;;
7205;SDS011;3644;53.480;10.004;2024-03-08T05:22:08;32.03;;;14.27;;
7205;SDS011;3644;53.480;10.004;2024-03-08T05:24:33;29.97;;;14.13;;
7205;SDS011;3644;53.480;10.004;2024-03-08T05:26:59;30.60;;;15.83;;
7205;SDS011;3644;53.480;10.004;2024-03-08T05:29:25;31.90;;;14.83;;
7205;SDS011;3644;53.480;10.004;2024-03-08T05:31:51;32.73;;;15.10;;
7205;SDS011;3644;53.480;10.004;2024-03-08T05:34:17;30.20;;;15.70;;
7205;SDS011;3644;53.480;10.004;2024-03-08T05:36:44;40.67;;;14.40;;
7205;SDS011;3644;53.480;10.004;2024-03-08T05:39:14;30.13;;;13.97;;
7205;SDS011;3644;53.480;10.004;2024-03-08T05:41:40;39.13;;;16.50;;
7205;SDS011;3644;53.480;10.004;2024-03-08T05:44:06;30.30;;;15.60;;
7205;SDS011;3644;53.480;10.004;2024-03-08T05:46:32;31.93;;;14.90;;
7205;SDS011;3644;53.480;10.004;2024-03-08T05:48:58;33.70;;;16.27;;
7205;SDS011;3644;53.480;10.004;2024-03-08T05:51:24;29.93;;;13.93;;
7205;SDS011;3644;53.480;10.004;2024-03-08T05:53:52;26.53;;;15.90;;
7205;SDS011;3644;53.480;10.004;2024-03-08T05:56:18;23.93;;;14.20;;
7205;SDS011;3644;53.480;10.004;2024-03-08T05:58:44;25.03;;;13.27;;
7205;SDS011;3644;53.480;10.004;2024-03-08T06:01:10;27.40;;;13.30;;
7205;SDS011;3644;53.480;10.004;2024-03-08T06:03:37;35.43;;;15.23;;
7205;SDS011;3644;53.480;10.004;2024-03-08T06:06:09;30.63;;;13.47;;
7205;SDS011;3644;53.480;10.004;2024-03-08T06:08:39;29.70;;;15.03;;
7205;SDS011;3644;53.480;10.004;2024-03-08T06:11:05;32.87;;;16.57;;
7205;SDS011;3644;53.480;10.004;2024-03-08T06:13:33;31.90;;;15.77;;
7205;SDS011;3644;53.480;10.004;2024-03-08T06:15:59;26.83;;;13.63;;
7205;SDS011;3644;53.480;10.004;2024-03-08T06:18:29;25.77;;;14.03;;
7205;SDS011;3644;53.480;10.004;2024-03-08T06:20:55;37.03;;;15.20;;
7205;SDS011;3644;53.480;10.004;2024-03-08T06:23:21;34.73;;;16.13;;
7205;SDS011;3644;53.480;10.004;2024-03-08T06:25:47;26.70;;;13.90;;
7205;SDS011;3644;53.480;10.004;2024-03-08T06:28:12;37.40;;;15.33;;
7205;SDS011;3644;53.480;10.004;2024-03-08T06:30:39;30.37;;;14.80;;
7205;SDS011;3644;53.480;10.004;2024-03-08T06:33:04;33.43;;;16.97;;
7205;SDS011;3644;53.480;10.004;2024-03-08T06:35:30;28.60;;;15.00;;
7205;SDS011;3644;53.480;10.004;2024-03-08T06:37:57;37.07;;;15.80;;
7205;SDS011;3644;53.480;10.004;2024-03-08T06:40:23;31.03;;;14.80;;
7205;SDS011;3644;53.480;10.004;2024-03-08T06:42:48;29.73;;;15.73;;
7205;SDS011;3644;53.480;10.004;2024-03-08T06:45:14;32.33;;;14.70;;
7205;SDS011;3644;53.480;10.004;2024-03-08T06:47:44;28.63;;;15.47;;
7205;SDS011;3644;53.480;10.004;2024-03-08T06:50:10;30.50;;;14.03;;
7205;SDS011;3644;53.480;10.004;2024-03-08T06:52:36;36.83;;;14.00;;
7205;SDS011;3644;53.480;10.004;2024-03-08T06:55:02;34.87;;;16.90;;
7205;SDS011;3644;53.480;10.004;2024-03-08T06:57:30;38.00;;;15.73;;
7205;SDS011;3644;53.480;10.004;2024-03-08T06:59:56;33.77;;;14.87;;
7205;SDS011;3644;53.480;10.004;2024-03-08T07:02:22;28.07;;;14.23;;
7205;SDS011;3644;53.480;10.004;2024-03-08T07:04:49;32.30;;;17.00;;
7205;SDS011;3644;53.480;10.004;2024-03-08T07:07:15;37.03;;;17.97;;
7205;SDS011;3644;53.480;10.004;2024-03-08T07:09:41;31.40;;;14.27;;
7205;SDS011;3644;53.480;10.004;2024-03-08T07:12:09;30.07;;;15.23;;
7205;SDS011;3644;53.480;10.004;2024-03-08T07:14:36;42.63;;;17.97;;
7205;SDS011;3644;53.480;10.004;2024-03-08T07:17:05;28.40;;;14.77;;
7205;SDS011;3644;53.480;10.004;2024-03-08T07:19:33;39.40;;;17.40;;
7205;SDS011;3644;53.480;10.004;2024-03-08T07:21:59;24.77;;;13.83;;
7205;SDS011;3644;53.480;10.004;2024-03-08T07:24:25;33.67;;;15.30;;
7205;SDS011;3644;53.480;10.004;2024-03-08T07:27:13;43.17;;;15.80;;
7205;SDS011;3644;53.480;10.004;2024-03-08T07:29:39;40.33;;;15.53;;
7205;SDS011;3644;53.480;10.004;2024-03-08T07:32:05;33.53;;;16.50;;
7205;SDS011;3644;53.480;10.004;2024-03-08T07:34:43;28.77;;;16.53;;
7205;SDS011;3644;53.480;10.004;2024-03-08T07:37:08;37.50;;;17.40;;
7205;SDS011;3644;53.480;10.004;2024-03-08T07:39:37;38.70;;;17.47;;
7205;SDS011;3644;53.480;10.004;2024-03-08T07:42:04;35.40;;;16.33;;
7205;SDS011;3644;53.480;10.004;2024-03-08T07:44:29;30.63;;;16.67;;
7205;SDS011;3644;53.480;10.004;2024-03-08T07:46:56;35.00;;;16.53;;
7205;SDS011;3644;53.480;10.004;2024-03-08T07:49:22;58.93;;;15.90;;
7205;SDS011;3644;53.480;10.004;2024-03-08T07:51:47;38.90;;;17.03;;
7205;SDS011;3644;53.480;10.004;2024-03-08T07:54:14;40.23;;;19.23;;
7205;SDS011;3644;53.480;10.004;2024-03-08T07:56:39;33.60;;;17.27;;
7205;SDS011;3644;53.480;10.004;2024-03-08T07:59:05;39.47;;;18.70;;
7205;SDS011;3644;53.480;10.004;2024-03-08T08:01:31;36.90;;;16.50;;
7205;SDS011;3644;53.480;10.004;2024-03-08T08:03:58;39.20;;;16.53;;
7205;SDS011;3644;53.480;10.004;2024-03-08T08:06:24;41.40;;;17.40;;
7205;SDS011;3644;53.480;10.004;2024-03-08T08:08:50;37.50;;;17.80;;
7205;SDS011;3644;53.480;10.004;2024-03-08T08:11:16;36.27;;;17.27;;
7205;SDS011;3644;53.480;10.004;2024-03-08T08:13:41;41.80;;;17.70;;
7205;SDS011;3644;53.480;10.004;2024-03-08T08:16:08;39.50;;;18.17;;
7205;SDS011;3644;53.480;10.004;2024-03-08T08:18:34;31.47;;;18.20;;
7205;SDS011;3644;53.480;10.004;2024-03-08T08:21:01;39.77;;;18.50;;
7205;SDS011;3644;53.480;10.004;2024-03-08T08:23:27;31.60;;;15.53;;
7205;SDS011;3644;53.480;10.004;2024-03-08T08:25:52;36.47;;;15.60;;
7205;SDS011;3644;53.480;10.004;2024-03-08T08:28:18;37.87;;;18.73;;
7205;SDS011;3644;53.480;10.004;2024-03-08T08:30:44;32.73;;;17.10;;
7205;SDS011;3644;53.480;10.004;2024-03-08T08:33:10;36.63;;;18.00;;
7205;SDS011;3644;53.480;10.004;2024-03-08T08:35:38;32.30;;;16.00;;
7205;SDS011;3644;53.480;10.004;2024-03-08T08:38:04;34.27;;;17.60;;
7205;SDS011;3644;53.480;10.004;2024-03-08T08:40:30;41.20;;;20.70;;
7205;SDS011;3644;53.480;10.004;2024-03-08T08:42:57;32.23;;;17.73;;
7205;SDS011;3644;53.480;10.004;2024-03-08T08:45:23;33.60;;;17.60;;
7205;SDS011;3644;53.480;10.004;2024-03-08T08:47:48;43.33;;;17.60;;
7205;SDS011;3644;53.480;10.004;2024-03-08T08:50:14;35.73;;;18.30;;
7205;SDS011;3644;53.480;10.004;2024-03-08T08:52:41;32.57;;;17.90;;
7205;SDS011;3644;53.480;10.004;2024-03-08T08:55:08;35.00;;;17.97;;
7205;SDS011;3644;53.480;10.004;2024-03-08T08:57:36;36.87;;;16.80;;
7205;SDS011;3644;53.480;10.004;2024-03-08T09:00:02;34.37;;;17.13;;
7205;SDS011;3644;53.480;10.004;2024-03-08T09:02:32;33.40;;;16.13;;
7205;SDS011;3644;53.480;10.004;2024-03-08T09:04:59;29.97;;;16.07;;
7205;SDS011;3644;53.480;10.004;2024-03-08T09:07:25;34.80;;;15.87;;
7205;SDS011;3644;53.480;10.004;2024-03-08T09:09:52;31.93;;;16.60;;
7205;SDS011;3644;53.480;10.004;2024-03-08T09:12:21;38.33;;;17.93;;
7205;SDS011;3644;53.480;10.004;2024-03-08T09:14:47;28.63;;;14.47;;
7205;SDS011;3644;53.480;10.004;2024-03-08T09:17:14;36.73;;;18.20;;
7205;SDS011;3644;53.480;10.004;2024-03-08T09:19:42;33.97;;;17.00;;
7205;SDS011;3644;53.480;10.004;2024-03-08T09:22:08;29.90;;;16.43;;
7205;SDS011;3644;53.480;10.004;2024-03-08T09:24:34;25.40;;;16.07;;
7205;SDS011;3644;53.480;10.004;2024-03-08T09:26:59;35.50;;;18.90;;
7205;SDS011;3644;53.480;10.004;2024-03-08T09:29:25;32.03;;;16.67;;
7205;SDS011;3644;53.480;10.004;2024-03-08T09:31:50;28.17;;;17.07;;
7205;SDS011;3644;53.480;10.004;2024-03-08T09:34:16;24.40;;;13.43;;
7205;SDS011;3644;53.480;10.004;2024-03-08T09:36:43;31.50;;;15.83;;
7205;SDS011;3644;53.480;10.004;2024-03-08T09:39:09;30.03;;;16.20;;
7205;SDS011;3644;53.480;10.004;2024-03-08T09:41:41;27.07;;;14.37;;
7205;SDS011;3644;53.480;10.004;2024-03-08T09:44:07;30.27;;;15.30;;
7205;SDS011;3644;53.480;10.004;2024-03-08T09:46:33;29.23;;;15.53;;
7205;SDS011;3644;53.480;10.004;2024-03-08T09:48:59;30.13;;;15.50;;
7205;SDS011;3644;53.480;10.004;2024-03-08T09:51:27;29.33;;;16.97;;
7205;SDS011;3644;53.480;10.004;2024-03-08T09:53:53;32.60;;;17.40;;
7205;SDS011;3644;53.480;10.004;2024-03-08T09:56:19;27.40;;;15.20;;
7205;SDS011;3644;53.480;10.004;2024-03-08T09:58:46;28.87;;;14.70;;
7205;SDS011;3644;53.480;10.004;2024-03-08T10:01:30;27.40;;;15.23;;
7205;SDS011;3644;53.480;10.004;2024-03-08T10:03:57;24.30;;;14.60;;
7205;SDS011;3644;53.480;10.004;2024-03-08T10:06:23;29.13;;;14.97;;
7205;SDS011;3644;53.480;10.004;2024-03-08T10:08:49;30.97;;;15.27;;
7205;SDS011;3644;53.480;10.004;2024-03-08T10:11:16;28.93;;;14.73;;
7205;SDS011;3644;53.480;10.004;2024-03-08T10:13:42;28.67;;;15.47;;
7205;SDS011;3644;53.480;10.004;2024-03-08T10:16:09;32.40;;;17.10;;
7205;SDS011;3644;53.480;10.004;2024-03-08T10:18:35;28.43;;;16.53;;
7205;SDS011;3644;53.480;10.004;2024-03-08T10:23:31;24.43;;;13.77;;
7205;SDS011;3644;53.480;10.004;2024-03-08T10:25:58;29.33;;;16.27;;
7205;SDS011;3644;53.480;10.004;2024-03-08T10:28:35;28.50;;;15.50;;
7205;SDS011;3644;53.480;10.004;2024-03-08T10:31:00;23.87;;;14.17;;
7205;SDS011;3644;53.480;10.004;2024-03-08T10:33:25;26.47;;;15.43;;
7205;SDS011;3644;53.480;10.004;2024-03-08T10:35:51;27.00;;;15.40;;
7205;SDS011;3644;53.480;10.004;2024-03-08T10:38:18;30.07;;;16.30;;
7205;SDS011;3644;53.480;10.004;2024-03-08T10:40:46;25.57;;;14.77;;
7205;SDS011;3644;53.480;10.004;2024-03-08T10:43:19;27.63;;;15.23;;
7205;SDS011;3644;53.480;10.004;2024-03-08T10:45:50;27.43;;;13.77;;
7205;SDS011;3644;53.480;10.004;2024-03-08T10:48:31;24.60;;;15.00;;
7205;SDS011;3644;53.480;10.004;2024-03-08T10:51:03;25.43;;;14.37;;
7205;SDS011;3644;53.480;10.004;2024-03-08T10:53:30;25.70;;;14.80;;
7205;SDS011;3644;53.480;10.004;2024-03-08T10:55:56;19.13;;;11.93;;
7205;SDS011;3644;53.480;10.004;2024-03-08T10:58:23;26.03;;;13.70;;
7205;SDS011;3644;53.480;10.004;2024-03-08T11:00:52;20.37;;;12.67;;
7205;SDS011;3644;53.480;10.004;2024-03-08T11:06:11;21.83;;;12.93;;
7205;SDS011;3644;53.480;10.004;2024-03-08T11:11:53;20.60;;;11.63;;
7205;SDS011;3644;53.480;10.004;2024-03-08T11:14:51;21.17;;;12.43;;
7205;SDS011;3644;53.480;10.004;2024-03-08T11:17:25;24.37;;;13.97;;
7205;SDS011;3644;53.480;10.004;2024-03-08T11:20:09;26.73;;;14.03;;
7205;SDS011;3644;53.480;10.004;2024-03-08T11:22:40;18.37;;;11.20;;
7205;SDS011;3644;53.480;10.004;2024-03-08T11:25:10;17.87;;;10.80;;
7205;SDS011;3644;53.480;10.004;2024-03-08T11:28:27;15.87;;;10.90;;
7205;SDS011;3644;53.480;10.004;2024-03-08T11:33:24;18.50;;;11.47;;
7205;SDS011;3644;53.480;10.004;2024-03-08T11:35:57;17.00;;;11.00;;
7205;SDS011;3644;53.480;10.004;2024-03-08T11:38:39;20.10;;;12.43;;
7205;SDS011;3644;53.480;10.004;2024-03-08T11:41:06;24.17;;;12.60;;
7205;SDS011;3644;53.480;10.004;2024-03-08T11:43:32;19.40;;;12.40;;
7205;SDS011;3644;53.480;10.004;2024-03-08T11:46:07;14.57;;;10.47;;
7205;SDS011;3644;53.480;10.004;2024-03-08T11:48:37;18.50;;;11.70;;
7205;SDS011;3644;53.480;10.004;2024-03-08T11:51:04;18.13;;;11.73;;
7205;SDS011;3644;53.480;10.004;2024-03-08T11:53:30;18.37;;;12.53;;
7205;SDS011;3644;53.480;10.004;2024-03-08T11:56:05;24.80;;;12.77;;
7205;SDS011;3644;53.480;10.004;2024-03-08T11:58:40;21.13;;;11.80;;
7205;SDS011;3644;53.480;10.004;2024-03-08T12:01:10;19.83;;;10.77;;
7205;SDS011;3644;53.480;10.004;2024-03-08T12:03:37;23.57;;;12.63;;
7205;SDS011;3644;53.480;10.004;2024-03-08T12:06:12;24.37;;;11.90;;
7205;SDS011;3644;53.480;10.004;2024-03-08T12:08:40;21.10;;;12.23;;
7205;SDS011;3644;53.480;10.004;2024-03-08T12:11:05;19.70;;;12.03;;
7205;SDS011;3644;53.480;10.004;2024-03-08T12:13:32;20.33;;;12.20;;
7205;SDS011;3644;53.480;10.004;2024-03-08T12:15:59;20.80;;;12.00;;
7205;SDS011;3644;53.480;10.004;2024-03-08T12:18:25;21.73;;;13.00;;
7205;SDS011;3644;53.480;10.004;2024-03-08T12:21:03;21.57;;;11.00;;
7205;SDS011;3644;53.480;10.004;2024-03-08T12:23:29;22.57;;;12.20;;
7205;SDS011;3644;53.480;10.004;2024-03-08T12:25:55;18.83;;;11.47;;
7205;SDS011;3644;53.480;10.004;2024-03-08T12:28:22;17.63;;;10.13;;
7205;SDS011;3644;53.480;10.004;2024-03-08T12:30:50;23.77;;;12.60;;
7205;SDS011;3644;53.480;10.004;2024-03-08T12:33:22;20.20;;;11.97;;
7205;SDS011;3644;53.480;10.004;2024-03-08T12:35:53;20.03;;;12.00;;
7205;SDS011;3644;53.480;10.004;2024-03-08T12:38:20;18.47;;;11.30;;
7205;SDS011;3644;53.480;10.004;2024-03-08T12:40:50;19.67;;;10.97;;
7205;SDS011;3644;53.480;10.004;2024-03-08T12:43:15;20.33;;;11.23;;
7205;SDS011;3644;53.480;10.004;2024-03-08T12:45:41;21.20;;;12.90;;
7205;SDS011;3644;53.480;10.004;2024-03-08T12:48:12;40.87;;;12.67;;
7205;SDS011;3644;53.480;10.004;2024-03-08T12:50:41;35.07;;;13.03;;
7205;SDS011;3644;53.480;10.004;2024-03-08T12:53:12;16.57;;;10.03;;
7205;SDS011;3644;53.480;10.004;2024-03-08T12:55:38;18.77;;;11.50;;
7205;SDS011;3644;53.480;10.004;2024-03-08T12:58:04;17.97;;;10.47;;
7205;SDS011;3644;53.480;10.004;2024-03-08T13:00:32;17.93;;;11.07;;
7205;SDS011;3644;53.480;10.004;2024-03-08T13:03:01;16.53;;;10.10;;
7205;SDS011;3644;53.480;10.004;2024-03-08T13:05:27;20.90;;;11.03;;
7205;SDS011;3644;53.480;10.004;2024-03-08T13:07:53;19.27;;;11.70;;
7205;SDS011;3644;53.480;10.004;2024-03-08T13:10:19;18.53;;;10.20;;
7205;SDS011;3644;53.480;10.004;2024-03-08T13:12:45;20.13;;;12.23;;
7205;SDS011;3644;53.480;10.004;2024-03-08T13:15:11;18.53;;;10.30;;
7205;SDS011;3644;53.480;10.004;2024-03-08T13:17:44;20.80;;;10.90;;
7205;SDS011;3644;53.480;10.004;2024-03-08T13:20:13;19.00;;;10.57;;
7205;SDS011;3644;53.480;10.004;2024-03-08T13:22:44;21.13;;;10.90;;
7205;SDS011;3644;53.480;10.004;2024-03-08T13:25:11;17.77;;;10.57;;
7205;SDS011;3644;53.480;10.004;2024-03-08T13:27:38;19.33;;;10.00;;
7205;SDS011;3644;53.480;10.004;2024-03-08T13:30:14;17.03;;;10.37;;
7205;SDS011;3644;53.480;10.004;2024-03-08T13:32:43;17.60;;;9.87;;
7205;SDS011;3644;53.480;10.004;2024-03-08T13:35:09;15.03;;;9.00;;
7205;SDS011;3644;53.480;10.004;2024-03-08T13:37:39;16.40;;;10.10;;
7205;SDS011;3644;53.480;10.004;2024-03-08T13:40:05;13.27;;;8.97;;
7205;SDS011;3644;53.480;10.004;2024-03-08T13:42:31;16.00;;;10.00;;
7205;SDS011;3644;53.480;10.004;2024-03-08T13:44:56;13.73;;;9.50;;
7205;SDS011;3644;53.480;10.004;2024-03-08T13:47:22;13.60;;;8.90;;
7205;SDS011;3644;53.480;10.004;2024-03-08T13:49:49;13.87;;;9.30;;
7205;SDS011;3644;53.480;10.004;2024-03-08T13:52:15;17.93;;;9.80;;
7205;SDS011;3644;53.480;10.004;2024-03-08T13:54:42;14.73;;;8.80;;
7205;SDS011;3644;53.480;10.004;2024-03-08T13:57:07;20.13;;;10.10;;
7205;SDS011;3644;53.480;10.004;2024-03-08T13:59:33;17.90;;;9.50;;
7205;SDS011;3644;53.480;10.004;2024-03-08T14:02:00;15.70;;;9.50;;
7205;SDS011;3644;53.480;10.004;2024-03-08T14:04:27;16.13;;;10.23;;
7205;SDS011;3644;53.480;10.004;2024-03-08T14:06:53;14.23;;;9.93;;
7205;SDS011;3644;53.480;10.004;2024-03-08T14:09:22;16.20;;;9.00;;
7205;SDS011;3644;53.480;10.004;2024-03-08T14:11:49;13.60;;;9.10;;
7205;SDS011;3644;53.480;10.004;2024-03-08T14:14:18;15.00;;;10.07;;
7205;SDS011;3644;53.480;10.004;2024-03-08T14:16:45;16.43;;;9.23;;
7205;SDS011;3644;53.480;10.004;2024-03-08T14:19:12;17.23;;;9.83;;
7205;SDS011;3644;53.480;10.004;2024-03-08T14:21:39;19.50;;;9.60;;
7205;SDS011;3644;53.480;10.004;2024-03-08T14:24:07;12.70;;;8.47;;
7205;SDS011;3644;53.480;10.004;2024-03-08T14:26:32;20.00;;;10.87;;
7205;SDS011;3644;53.480;10.004;2024-03-08T14:28:59;16.60;;;10.40;;
7205;SDS011;3644;53.480;10.004;2024-03-08T14:31:24;12.90;;;8.53;;
7205;SDS011;3644;53.480;10.004;2024-03-08T14:33:51;14.50;;;9.23;;
7205;SDS011;3644;53.480;10.004;2024-03-08T14:36:17;19.37;;;10.13;;
7205;SDS011;3644;53.480;10.004;2024-03-08T14:38:44;14.70;;;9.93;;
7205;SDS011;3644;53.480;10.004;2024-03-08T14:41:12;17.73;;;9.50;;
7205;SDS011;3644;53.480;10.004;2024-03-08T14:43:38;13.20;;;9.80;;
7205;SDS011;3644;53.480;10.004;2024-03-08T14:46:04;19.20;;;9.70;;